Time;durP1;ratioP1;P1;durP2;ratioP2;P2;SDS_P1;SDS_P2;PMS_P1;PMS_P2;Temp;Humidity;BMP_temperature;BMP_pressure;BME280_temperature;BME280_humidity;BME280_pressure;Samples;Min_cycle;Max_cycle;Signal;HPM_P1;HPM_P2
2023/05/11 00:02:17;;;;;;;;;;;20.40;92.80;;;;;;5077407;28;19909;-83
2023/05/11 00:04:43;;;;;;;;;;;20.50;92.80;;;;;;5061437;28;19908;-83
2023/05/11 00:07:08;;;;;;;;;;;20.40;92.80;;;;;;5061683;28;19919;-83
2023/05/11 00:09:34;;;;;;;;;;;20.40;92.80;;;;;;5060314;28;20167;-83
2023/05/11 00:12:01;;;;;;;;;;;20.40;92.80;;;;;;5060749;28;20002;-83
2023/05/11 00:14:27;;;;;;;;;;;20.40;92.80;;;;;;5061332;28;20210;-83
2023/05/11 00:16:53;;;;;;;;;;;20.40;92.80;;;;;;5060986;28;19908;-83
2023/05/11 00:19:18;;;;;;;;;;;20.40;92.80;;;;;;5060364;28;19920;-83
2023/05/11 00:21:44;;;;;;;;;;;20.40;92.80;;;;;;5057664;28;19916;-83
2023/05/11 00:24:10;;;;;;;;;;;20.40;92.90;;;;;;5076060;28;20172;-83
2023/05/11 00:26:36;;;;;;;;;;;20.40;92.80;;;;;;5075500;28;19912;-83
2023/05/11 00:29:01;;;;;;;;;;;20.40;92.80;;;;;;5058252;28;19999;-83
2023/05/11 00:31:27;;;;;;;;;;;20.30;93.10;;;;;;5058636;28;20294;-83
2023/05/11 00:33:56;;;;;;;;;;;20.30;92.80;;;;;;5058170;28;20135;-83
2023/05/11 00:36:21;;;;;;;;;;;20.30;92.80;;;;;;5072812;28;19923;-83
2023/05/11 00:38:48;;;;;;;;;;;20.30;92.80;;;;;;5057760;28;19909;-83
2023/05/11 00:41:14;;;;;;;;;;;20.30;92.80;;;;;;5058498;28;19919;-83
2023/05/11 00:43:40;;;;;;;;;;;20.30;92.90;;;;;;5058857;28;19920;-83
2023/05/11 00:46:05;;;;;;;;;;;20.30;92.90;;;;;;5058664;28;20217;-83
2023/05/11 00:48:31;;;;;;;;;;;20.30;92.90;;;;;;5057041;28;19919;-83
2023/05/11 00:50:58;;;;;;;;;;;20.30;92.90;;;;;;5057125;28;19913;-83
2023/05/11 00:53:24;;;;;;;;;;;20.30;92.90;;;;;;5057896;28;20435;-83
2023/05/11 00:55:49;;;;;;;;;;;20.30;92.80;;;;;;5058889;28;20019;-83
2023/05/11 00:58:15;;;;;;;;;;;20.30;92.80;;;;;;5076209;28;19909;-83
2023/05/11 01:00:41;;;;;;;;;;;20.20;92.80;;;;;;5076986;28;19919;-83
2023/05/11 01:03:07;;;;;;;;;;;20.20;92.80;;;;;;5059576;28;19973;-83
2023/05/11 01:05:51;;;;;;;;;;;20.20;92.80;;;;;;5058732;28;19908;-83
2023/05/11 01:08:20;;;;;;;;;;;20.30;92.80;;;;;;5060316;28;19935;-83
2023/05/11 01:10:51;;;;;;;;;;;20.20;92.80;;;;;;5077482;28;19924;-83
2023/05/11 01:13:20;;;;;;;;;;;20.20;92.80;;;;;;5077436;28;19919;-83
2023/05/11 01:15:45;;;;;;;;;;;20.20;92.80;;;;;;5059528;28;20343;-83
2023/05/11 01:18:18;;;;;;;;;;;20.20;92.80;;;;;;5060490;28;19970;-83
2023/05/11 01:20:45;;;;;;;;;;;20.20;92.80;;;;;;5059706;28;19909;-83
2023/05/11 01:23:14;;;;;;;;;;;20.20;92.80;;;;;;5060188;28;19909;-83
2023/05/11 01:25:43;;;;;;;;;;;20.20;92.80;;;;;;5059384;28;20050;-83
2023/05/11 01:28:14;;;;;;;;;;;20.20;92.80;;;;;;5059640;28;19908;-83
2023/05/11 01:30:47;;;;;;;;;;;20.20;92.80;;;;;;5058462;28;19923;-83
2023/05/11 01:33:13;;;;;;;;;;;20.20;92.80;;;;;;5075604;28;19970;-83
2023/05/11 01:35:46;;;;;;;;;;;20.20;92.80;;;;;;5053721;28;20194;-83
2023/05/11 01:38:12;;;;;;;;;;;20.20;92.80;;;;;;5054362;28;19920;-83
2023/05/11 01:40:40;;;;;;;;;;;20.10;92.80;;;;;;5051567;28;19909;-83
2023/05/11 01:43:11;;;;;;;;;;;20.20;92.80;;;;;;5052523;28;20013;-83
2023/05/11 01:45:39;;;;;;;;;;;20.10;92.80;;;;;;5052649;28;20180;-83
2023/05/11 01:48:08;;;;;;;;;;;20.10;92.70;;;;;;5052910;28;19916;-83
2023/05/11 01:50:34;;;;;;;;;;;20.10;92.80;;;;;;5052351;28;19971;-83
2023/05/11 01:53:02;;;;;;;;;;;20.10;92.80;;;;;;5052218;28;19958;-83
2023/05/11 01:55:30;;;;;;;;;;;20.10;92.80;;;;;;5051793;28;20003;-82
2023/05/11 01:57:56;;;;;;;;;;;20.10;92.70;;;;;;5053271;28;19920;-83
2023/05/11 02:00:22;;;;;;;;;;;20.10;92.70;;;;;;5053129;28;20255;-83
2023/05/11 02:02:48;;;;;;;;;;;20.10;92.80;;;;;;5054541;28;19944;-83
2023/05/11 02:05:21;;;;;;;;;;;20.10;92.80;;;;;;5053867;28;19956;-83
2023/05/11 02:07:49;;;;;;;;;;;20.10;92.80;;;;;;5054220;28;20213;-83
2023/05/11 02:10:15;;;;;;;;;;;20.10;92.80;;;;;;5052629;28;20176;-83
2023/05/11 02:12:42;;;;;;;;;;;20.10;92.80;;;;;;5054650;28;19995;-83
2023/05/11 02:15:09;;;;;;;;;;;20.10;92.80;;;;;;5057131;28;19963;-83
2023/05/11 02:17:37;;;;;;;;;;;20.10;92.80;;;;;;5055536;28;19920;-83
2023/05/11 02:20:04;;;;;;;;;;;20.00;92.70;;;;;;5054054;28;19917;-83
2023/05/11 02:22:30;;;;;;;;;;;20.00;92.70;;;;;;5056027;28;19915;-83
2023/05/11 02:24:57;;;;;;;;;;;20.00;92.70;;;;;;5055686;28;19920;-83
2023/05/11 02:27:23;;;;;;;;;;;20.00;92.70;;;;;;5055668;28;19916;-83
2023/05/11 02:29:48;;;;;;;;;;;20.10;92.80;;;;;;5057028;28;19973;-83
2023/05/11 02:32:16;;;;;;;;;;;20.00;92.70;;;;;;5055221;28;19913;-83
2023/05/11 02:34:42;;;;;;;;;;;20.00;92.80;;;;;;5055731;28;19947;-83
2023/05/11 02:37:15;;;;;;;;;;;20.00;92.70;;;;;;5055910;28;20259;-83
2023/05/11 02:39:43;;;;;;;;;;;20.00;92.80;;;;;;5055893;28;19913;-83
2023/05/11 02:42:19;;;;;;;;;;;20.00;92.70;;;;;;5057008;28;19924;-83
2023/05/11 02:44:54;;;;;;;;;;;20.00;92.70;;;;;;5054877;28;19909;-83
2023/05/11 02:47:20;;;;;;;;;;;20.00;92.70;;;;;;5056059;28;19975;-83
2023/05/11 02:49:52;;;;;;;;;;;20.00;92.70;;;;;;5054543;28;19936;-83
2023/05/11 02:52:20;;;;;;;;;;;20.00;92.70;;;;;;5055992;28;19913;-83
2023/05/11 02:54:48;;;;;;;;;;;20.00;92.70;;;;;;5055221;28;20386;-83
2023/05/11 02:57:14;;;;;;;;;;;20.00;92.70;;;;;;5054575;28;19909;-83
2023/05/11 02:59:39;;;;;;;;;;;19.90;92.70;;;;;;5055710;28;20209;-83
2023/05/11 03:02:05;;;;;;;;;;;19.90;92.70;;;;;;5054039;28;19915;-83
2023/05/11 03:04:31;;;;;;;;;;;20.00;92.70;;;;;;5055954;28;19930;-83
2023/05/11 03:06:56;;;;;;;;;;;19.90;92.70;;;;;;5054232;28;19913;-83
2023/05/11 03:09:22;;;;;;;;;;;19.90;92.70;;;;;;5054890;28;20116;-83
2023/05/11 03:11:48;;;;;;;;;;;19.90;92.70;;;;;;5054366;28;19916;-83
2023/05/11 03:14:13;;;;;;;;;;;19.90;92.70;;;;;;5058373;28;19952;-83
2023/05/11 03:16:39;;;;;;;;;;;19.90;92.70;;;;;;5058118;28;19909;-83
2023/05/11 03:19:06;;;;;;;;;;;19.90;92.70;;;;;;5058736;28;19909;-83
2023/05/11 03:21:33;;;;;;;;;;;19.90;92.70;;;;;;5057560;28;19916;-83
2023/05/11 03:23:58;;;;;;;;;;;19.90;92.70;;;;;;5058158;28;19908;-83
2023/05/11 03:26:26;;;;;;;;;;;19.90;92.70;;;;;;5058567;28;19958;-83
2023/05/11 03:28:52;;;;;;;;;;;19.90;92.70;;;;;;5058295;28;19936;-83
2023/05/11 03:31:17;;;;;;;;;;;19.90;92.70;;;;;;5057910;28;19917;-83
2023/05/11 03:33:43;;;;;;;;;;;19.90;92.70;;;;;;5058073;28;19909;-83
2023/05/11 03:36:09;;;;;;;;;;;19.90;92.70;;;;;;5056932;28;20015;-83
2023/05/11 03:38:36;;;;;;;;;;;19.80;92.60;;;;;;5058533;28;19919;-83
2023/05/11 03:41:01;;;;;;;;;;;19.80;92.60;;;;;;5055728;28;19940;-83
2023/05/11 03:43:29;;;;;;;;;;;19.80;92.60;;;;;;5057593;28;20265;-83
2023/05/11 03:45:56;;;;;;;;;;;19.90;92.70;;;;;;5055575;28;19919;-83
2023/05/11 03:48:22;;;;;;;;;;;19.80;92.60;;;;;;5057139;28;19909;-83
2023/05/11 03:50:47;;;;;;;;;;;19.80;92.60;;;;;;5054842;28;19921;-83
2023/05/11 03:53:15;;;;;;;;;;;19.80;92.60;;;;;;5053600;28;19909;-83
2023/05/11 03:55:40;;;;;;;;;;;19.80;92.60;;;;;;5053874;28;19967;-83
2023/05/11 03:58:09;;;;;;;;;;;19.90;92.60;;;;;;5050913;28;19912;-83
2023/05/11 04:00:39;;;;;;;;;;;19.80;92.60;;;;;;5052189;28;19948;-83
2023/05/11 04:03:05;;;;;;;;;;;19.80;92.60;;;;;;5053613;28;20172;-83
2023/05/11 04:05:31;;;;;;;;;;;19.80;92.60;;;;;;5057120;28;19920;-83
2023/05/11 04:07:56;;;;;;;;;;;19.80;92.60;;;;;;5057253;28;20080;-83
2023/05/11 04:10:22;;;;;;;;;;;19.80;92.60;;;;;;5054855;28;19920;-83
2023/05/11 04:12:48;;;;;;;;;;;19.80;92.60;;;;;;5055260;28;19909;-83
2023/05/11 04:15:13;;;;;;;;;;;19.80;92.60;;;;;;5054750;28;20180;-83
2023/05/11 04:17:39;;;;;;;;;;;19.80;92.60;;;;;;5055137;28;19909;-83
2023/05/11 04:20:05;;;;;;;;;;;19.80;92.50;;;;;;5054080;28;19913;-83
2023/05/11 04:22:31;;;;;;;;;;;19.80;92.50;;;;;;5054093;28;19920;-83
2023/05/11 04:24:56;;;;;;;;;;;19.80;92.50;;;;;;5055435;28;20073;-83
2023/05/11 04:27:21;;;;;;;;;;;19.80;92.50;;;;;;5053564;28;19935;-83
2023/05/11 04:29:47;;;;;;;;;;;19.80;92.50;;;;;;5051910;28;19908;-83
2023/05/11 04:32:14;;;;;;;;;;;19.80;92.50;;;;;;5051182;28;20481;-82
2023/05/11 04:34:39;;;;;;;;;;;19.80;92.50;;;;;;5056721;28;19938;-82
2023/05/11 04:37:06;;;;;;;;;;;19.80;92.50;;;;;;5071485;28;20205;-82
2023/05/11 04:39:32;;;;;;;;;;;19.80;92.50;;;;;;5054865;28;19908;-82
2023/05/11 04:41:58;;;;;;;;;;;19.80;94.40;;;;;;5055073;28;20209;-82
2023/05/11 04:44:24;;;;;;;;;;;19.80;94.90;;;;;;5054855;28;20352;-82
2023/05/11 04:46:52;;;;;;;;;;;19.90;94.20;;;;;;5053544;28;19908;-82
2023/05/11 04:49:18;;;;;;;;;;;19.90;94.00;;;;;;5053217;28;19915;-82
2023/05/11 04:51:44;;;;;;;;;;;19.80;93.90;;;;;;5053231;28;19913;-82
2023/05/11 04:54:09;;;;;;;;;;;19.80;94.00;;;;;;5072694;28;19908;-82
2023/05/11 04:56:39;;;;;;;;;;;19.80;94.00;;;;;;5071118;28;20376;-82
2023/05/11 04:59:05;;;;;;;;;;;19.80;93.90;;;;;;5053204;28;19999;-82
2023/05/11 05:01:31;;;;;;;;;;;19.80;93.90;;;;;;5057285;28;19948;-80
2023/05/11 05:03:56;;;;;;;;;;;19.80;93.90;;;;;;5073414;28;20003;-81
2023/05/11 05:06:22;;;;;;;;;;;19.80;93.90;;;;;;5055547;28;19915;-81
2023/05/11 05:08:47;;;;;;;;;;;19.90;93.90;;;;;;5055320;28;20209;-82
2023/05/11 05:11:13;;;;;;;;;;;19.90;93.90;;;;;;5053530;28;19912;-82
2023/05/11 05:13:38;;;;;;;;;;;19.90;93.90;;;;;;5054981;28;20002;-82
2023/05/11 05:16:04;;;;;;;;;;;19.90;93.90;;;;;;5069976;28;19916;-81
2023/05/11 05:18:29;;;;;;;;;;;19.90;93.90;;;;;;5051629;28;19914;-81
2023/05/11 05:20:55;;;;;;;;;;;19.90;93.90;;;;;;5070395;28;19934;-81
2023/05/11 05:23:22;;;;;;;;;;;19.90;93.90;;;;;;5052807;28;19909;-82
2023/05/11 05:25:47;;;;;;;;;;;19.90;93.90;;;;;;5052428;28;19916;-81
2023/05/11 05:28:13;;;;;;;;;;;19.90;93.90;;;;;;5052770;28;19919;-82
2023/05/11 05:30:38;;;;;;;;;;;20.00;93.90;;;;;;5068870;28;19908;-82
2023/05/11 05:33:04;;;;;;;;;;;20.00;93.90;;;;;;5050074;28;20098;-81
2023/05/11 05:35:30;;;;;;;;;;;20.00;94.00;;;;;;5048925;28;20111;-83
2023/05/11 05:37:56;;;;;;;;;;;20.00;94.00;;;;;;5049975;28;19909;-82
2023/05/11 05:40:21;;;;;;;;;;;20.00;94.00;;;;;;5067615;28;20236;-82
2023/05/11 05:42:47;;;;;;;;;;;20.00;94.00;;;;;;5048996;28;19981;-82
2023/05/11 05:45:13;;;;;;;;;;;20.00;94.00;;;;;;5047975;28;20209;-82
2023/05/11 05:47:38;;;;;;;;;;;20.00;94.00;;;;;;5048316;28;19908;-82
2023/05/11 05:50:05;;;;;;;;;;;20.10;94.10;;;;;;5049456;28;19931;-82
2023/05/11 05:52:30;;;;;;;;;;;20.10;94.00;;;;;;5049126;28;19977;-82
2023/05/11 05:54:56;;;;;;;;;;;20.10;94.00;;;;;;5066083;28;19916;-81
2023/05/11 05:57:21;;;;;;;;;;;20.10;94.10;;;;;;5050187;28;19909;-82
2023/05/11 05:59:47;;;;;;;;;;;20.10;94.10;;;;;;5066962;28;20182;-82
2023/05/11 06:02:12;;;;;;;;;;;20.20;94.20;;;;;;5047810;28;19908;-82
2023/05/11 06:04:38;;;;;;;;;;;20.20;94.20;;;;;;5066743;28;20190;-82
2023/05/11 06:07:03;;;;;;;;;;;20.20;94.30;;;;;;5051087;28;20135;-82
2023/05/11 06:09:29;;;;;;;;;;;20.20;94.40;;;;;;5067200;28;19908;-82
2023/05/11 06:11:54;;;;;;;;;;;20.20;94.40;;;;;;5048464;28;20006;-82
2023/05/11 06:14:23;;;;;;;;;;;20.20;94.40;;;;;;5051695;28;19997;-81
2023/05/11 06:16:49;;;;;;;;;;;20.30;94.50;;;;;;5048256;28;20046;-81
2023/05/11 06:19:15;;;;;;;;;;;20.30;94.40;;;;;;5047751;28;19908;-82
2023/05/11 06:21:41;;;;;;;;;;;20.30;94.40;;;;;;5064386;28;19909;-82
2023/05/11 06:24:07;;;;;;;;;;;20.30;94.30;;;;;;5068057;28;19911;-82
2023/05/11 06:26:33;;;;;;;;;;;20.30;94.30;;;;;;5047341;28;19908;-82
2023/05/11 06:28:58;;;;;;;;;;;20.30;94.40;;;;;;5047303;28;19908;-82
2023/05/11 06:31:24;;;;;;;;;;;20.30;94.50;;;;;;5047922;28;19912;-82
2023/05/11 06:33:49;;;;;;;;;;;20.30;94.50;;;;;;5065962;28;20297;-82
2023/05/11 06:36:15;;;;;;;;;;;20.30;94.40;;;;;;5044656;28;20068;-82
2023/05/11 06:38:41;;;;;;;;;;;20.30;94.50;;;;;;5066143;28;19909;-82
2023/05/11 06:41:08;;;;;;;;;;;20.40;94.50;;;;;;5048391;28;19915;-82
2023/05/11 06:43:34;;;;;;;;;;;20.40;94.30;;;;;;5047795;28;20233;-82
2023/05/11 06:45:59;;;;;;;;;;;20.40;94.60;;;;;;5049560;28;19920;-82
2023/05/11 06:48:28;;;;;;;;;;;20.40;94.40;;;;;;5052318;28;19916;-82
2023/05/11 06:50:54;;;;;;;;;;;20.40;94.30;;;;;;5053281;28;19947;-82
2023/05/11 06:53:19;;;;;;;;;;;20.50;94.30;;;;;;5053398;28;20249;-82
2023/05/11 06:55:46;;;;;;;;;;;20.50;94.10;;;;;;5052199;28;20301;-82
2023/05/11 06:58:11;;;;;;;;;;;20.50;93.90;;;;;;5053475;28;19920;-82
2023/05/11 07:00:37;;;;;;;;;;;20.60;93.70;;;;;;5052633;28;19917;-82
2023/05/11 07:03:03;;;;;;;;;;;20.70;93.60;;;;;;5050923;28;19916;-82
2023/05/11 07:05:29;;;;;;;;;;;20.90;93.10;;;;;;5053834;28;19917;-82
2023/05/11 07:07:54;;;;;;;;;;;21.10;92.70;;;;;;5054256;28;19982;-84
2023/05/11 07:10:20;;;;;;;;;;;21.70;91.70;;;;;;5069930;28;19913;-81
2023/05/11 07:12:46;;;;;;;;;;;22.20;90.30;;;;;;5068899;28;20408;-81
2023/05/11 07:15:11;;;;;;;;;;;22.60;87.60;;;;;;5050857;28;19913;-81
2023/05/11 07:17:37;;;;;;;;;;;23.10;85.30;;;;;;5069458;28;19922;-82
2023/05/11 07:20:03;;;;;;;;;;;23.40;82.60;;;;;;5068252;28;20067;-82
2023/05/11 07:22:28;;;;;;;;;;;23.30;81.00;;;;;;5052942;28;20171;-81
2023/05/11 07:24:53;;;;;;;;;;;23.60;79.90;;;;;;5049818;28;19909;-81
2023/05/11 07:27:19;;;;;;;;;;;23.30;79.60;;;;;;5071130;28;19908;-81
2023/05/11 07:29:45;;;;;;;;;;;23.00;80.10;;;;;;5073215;28;19908;-81
2023/05/11 07:32:10;;;;;;;;;;;22.80;81.00;;;;;;5071389;28;19978;-81
2023/05/11 07:34:36;;;;;;;;;;;22.70;81.80;;;;;;5057668;28;20367;-81
2023/05/11 07:37:01;;;;;;;;;;;22.80;81.80;;;;;;5071960;28;20128;-81
2023/05/11 07:39:27;;;;;;;;;;;23.00;81.00;;;;;;5088149;28;19912;-81
2023/05/11 07:41:53;;;;;;;;;;;23.30;80.00;;;;;;5070571;28;20258;-82
2023/05/11 07:44:18;;;;;;;;;;;23.70;77.30;;;;;;5088949;28;20037;-82
2023/05/11 07:46:44;;;;;;;;;;;24.20;75.00;;;;;;5069798;28;20231;-81
2023/05/11 07:49:09;;;;;;;;;;;24.10;73.60;;;;;;5073552;28;19914;-81
2023/05/11 07:51:36;;;;;;;;;;;24.70;72.00;;;;;;5088106;28;19947;-81
2023/05/11 07:54:01;;;;;;;;;;;25.30;69.80;;;;;;5070884;28;19974;-82
2023/05/11 07:56:27;;;;;;;;;;;25.60;67.40;;;;;;5090425;28;19981;-82
2023/05/11 07:58:53;;;;;;;;;;;25.90;66.10;;;;;;5071504;28;20167;-82
2023/05/11 08:01:18;;;;;;;;;;;26.20;64.70;;;;;;5072958;28;20303;-82
2023/05/11 08:03:44;;;;;;;;;;;26.50;63.10;;;;;;5091127;28;19916;-82
2023/05/11 08:06:10;;;;;;;;;;;26.80;61.90;;;;;;5090347;28;19908;-82
2023/05/11 08:08:36;;;;;;;;;;;26.40;60.80;;;;;;5089628;28;19908;-82
2023/05/11 08:11:03;;;;;;;;;;;25.80;61.70;;;;;;5071984;28;20194;-82
2023/05/11 08:13:28;;;;;;;;;;;25.40;63.10;;;;;;5089389;28;19908;-82
2023/05/11 08:15:54;;;;;;;;;;;25.00;64.40;;;;;;5079714;28;19984;-82
2023/05/11 08:18:20;;;;;;;;;;;24.70;65.50;;;;;;5090890;28;19912;-82
2023/05/11 08:20:45;;;;;;;;;;;24.40;66.60;;;;;;5091251;28;19943;-82
2023/05/11 08:23:16;;;;;;;;;;;24.30;67.60;;;;;;5075257;28;20151;-82
2023/05/11 08:25:47;;;;;;;;;;;24.30;68.10;;;;;;5091938;28;20162;-82
2023/05/11 08:28:13;;;;;;;;;;;24.40;68.10;;;;;;5073986;28;19908;-82
2023/05/11 08:30:39;;;;;;;;;;;24.40;68.10;;;;;;5090335;28;19908;-82
2023/05/11 08:33:04;;;;;;;;;;;24.40;68.00;;;;;;5074116;28;20033;-82
2023/05/11 08:35:30;;;;;;;;;;;24.50;67.70;;;;;;5070866;28;19955;-82
2023/05/11 08:37:56;;;;;;;;;;;24.40;67.60;;;;;;5070312;28;20160;-82
2023/05/11 08:40:23;;;;;;;;;;;24.40;67.80;;;;;;5070556;28;19931;-82
2023/05/11 08:42:53;;;;;;;;;;;24.30;68.20;;;;;;5072572;28;19919;-82
2023/05/11 08:45:19;;;;;;;;;;;24.40;68.00;;;;;;5072407;28;19923;-82
2023/05/11 08:47:46;;;;;;;;;;;24.70;67.30;;;;;;5089625;28;20174;-82
2023/05/11 08:50:12;;;;;;;;;;;24.70;66.80;;;;;;5089264;28;20010;-82
2023/05/11 08:52:39;;;;;;;;;;;24.60;66.90;;;;;;5070783;28;20034;-82
2023/05/11 08:55:05;;;;;;;;;;;24.40;67.30;;;;;;5087950;28;19909;-82
2023/05/11 08:57:33;;;;;;;;;;;24.10;68.20;;;;;;5085669;28;19952;-82
2023/05/11 09:00:00;;;;;;;;;;;23.90;69.00;;;;;;5086112;28;20328;-82
2023/05/11 09:02:26;;;;;;;;;;;23.70;69.70;;;;;;5086612;28;19909;-82
2023/05/11 09:04:52;;;;;;;;;;;23.60;70.50;;;;;;5068737;28;19993;-82
2023/05/11 09:07:18;;;;;;;;;;;23.50;71.20;;;;;;5067840;28;19915;-82
2023/05/11 09:09:44;;;;;;;;;;;23.30;71.70;;;;;;5068925;28;19912;-82
2023/05/11 09:12:10;;;;;;;;;;;23.20;72.20;;;;;;5089407;28;19912;-82
2023/05/11 09:14:36;;;;;;;;;;;23.20;72.80;;;;;;5073011;28;19918;-82
2023/05/11 09:17:03;;;;;;;;;;;23.10;73.30;;;;;;5088600;28;19919;-82
2023/05/11 09:19:28;;;;;;;;;;;23.00;73.70;;;;;;5086235;28;20308;-82
2023/05/11 09:21:54;;;;;;;;;;;23.00;74.20;;;;;;5068015;28;19904;-82
2023/05/11 09:24:21;;;;;;;;;;;22.90;74.50;;;;;;5084695;28;19908;-82
2023/05/11 09:26:47;;;;;;;;;;;22.90;74.90;;;;;;5066661;28;19908;-82
2023/05/11 09:29:12;;;;;;;;;;;22.80;75.10;;;;;;5066931;28;19965;-82
2023/05/11 09:31:39;;;;;;;;;;;22.80;75.40;;;;;;5063347;28;19912;-82
2023/05/11 09:34:09;;;;;;;;;;;22.80;75.70;;;;;;5065827;28;19912;-82
2023/05/11 09:36:35;;;;;;;;;;;22.80;75.90;;;;;;5067511;28;20008;-82
2023/05/11 09:39:02;;;;;;;;;;;22.70;76.00;;;;;;5067038;28;19935;-83
2023/05/11 09:41:31;;;;;;;;;;;22.70;76.30;;;;;;5067773;28;19912;-83
2023/05/11 09:44:17;;;;;;;;;;;22.70;76.60;;;;;;5068349;28;19973;-83
2023/05/11 09:46:43;;;;;;;;;;;22.70;76.80;;;;;;5067989;28;19908;-83
2023/05/11 09:49:09;;;;;;;;;;;22.60;77.00;;;;;;5068232;28;19977;-83
2023/05/11 09:51:36;;;;;;;;;;;22.60;77.20;;;;;;5069626;28;19912;-83
2023/05/11 09:54:15;;;;;;;;;;;22.60;77.40;;;;;;5068892;28;19908;-83
2023/05/11 09:56:42;;;;;;;;;;;22.60;77.60;;;;;;5068266;28;19908;-82
2023/05/11 09:59:08;;;;;;;;;;;22.60;77.60;;;;;;5068800;28;19938;-83
2023/05/11 10:01:36;;;;;;;;;;;22.60;77.60;;;;;;5068038;28;19916;-83
2023/05/11 10:04:02;;;;;;;;;;;22.60;77.50;;;;;;5066588;28;19908;-83
2023/05/11 10:06:48;;;;;;;;;;;22.70;77.40;;;;;;5066588;28;20274;-83
2023/05/11 10:09:15;;;;;;;;;;;22.70;77.20;;;;;;5082277;28;19973;-83
2023/05/11 10:11:43;;;;;;;;;;;22.70;76.90;;;;;;5081889;28;19912;-83
2023/05/11 10:14:10;;;;;;;;;;;22.70;76.80;;;;;;5063645;28;19969;-83
2023/05/11 10:16:36;;;;;;;;;;;22.70;76.80;;;;;;5063925;28;19914;-83
2023/05/11 10:19:02;;;;;;;;;;;22.70;76.80;;;;;;5063280;28;20140;-83
2023/05/11 10:21:27;;;;;;;;;;;22.70;76.90;;;;;;5067512;28;20186;-83
2023/05/11 10:23:55;;;;;;;;;;;22.70;76.80;;;;;;5089178;28;19919;-83
2023/05/11 10:26:24;;;;;;;;;;;22.60;76.80;;;;;;5090317;28;19954;-83
2023/05/11 10:28:51;;;;;;;;;;;22.60;76.80;;;;;;5068106;28;19916;-82
2023/05/11 10:31:22;;;;;;;;;;;22.60;76.90;;;;;;5088711;28;20243;-83
2023/05/11 10:33:50;;;;;;;;;;;22.60;76.90;;;;;;5070852;28;20022;-83
2023/05/11 10:36:16;;;;;;;;;;;22.60;76.90;;;;;;5085806;28;19927;-83
2023/05/11 10:38:41;;;;;;;;;;;22.60;76.80;;;;;;5070159;28;20160;-83
2023/05/11 10:41:19;;;;;;;;;;;22.60;76.70;;;;;;5069986;28;20434;-83
2023/05/11 10:43:48;;;;;;;;;;;22.60;76.60;;;;;;5068886;28;19908;-83
2023/05/11 10:46:21;;;;;;;;;;;22.60;76.60;;;;;;5087660;28;19915;-83
2023/05/11 10:48:57;;;;;;;;;;;22.60;76.80;;;;;;5068885;28;19916;-83
2023/05/11 10:51:29;;;;;;;;;;;22.60;76.90;;;;;;5071965;28;20020;-83
2023/05/11 10:53:58;;;;;;;;;;;22.60;77.10;;;;;;5068169;28;20083;-83
2023/05/11 10:56:36;;;;;;;;;;;22.60;77.10;;;;;;5069398;28;19912;-83
2023/05/11 10:59:04;;;;;;;;;;;22.60;77.10;;;;;;5068797;28;19908;-83
2023/05/11 11:01:33;;;;;;;;;;;22.60;77.20;;;;;;5067287;28;20181;-83
2023/05/11 11:04:01;;;;;;;;;;;22.60;77.30;;;;;;5068671;28;19982;-83
2023/05/11 11:06:28;;;;;;;;;;;22.50;77.40;;;;;;5068711;28;19908;-83
2023/05/11 11:08:57;;;;;;;;;;;22.50;77.50;;;;;;5067710;28;20235;-83
2023/05/11 11:11:39;;;;;;;;;;;22.50;77.80;;;;;;5066632;28;20347;-83
2023/05/11 11:14:06;;;;;;;;;;;22.40;78.00;;;;;;5066110;28;19908;-83
2023/05/11 11:16:32;;;;;;;;;;;22.40;78.20;;;;;;5065412;28;20132;-83
2023/05/11 11:19:17;;;;;;;;;;;22.30;78.50;;;;;;5065328;28;20063;-83
2023/05/11 11:21:44;;;;;;;;;;;22.30;78.80;;;;;;5066937;28;20228;-83
2023/05/11 11:24:29;;;;;;;;;;;22.30;79.10;;;;;;5066813;28;19908;-83
2023/05/11 11:26:55;;;;;;;;;;;22.30;79.30;;;;;;5090590;28;20007;-83
2023/05/11 11:29:21;;;;;;;;;;;22.20;79.60;;;;;;5067340;28;20011;-83
2023/05/11 11:31:46;;;;;;;;;;;22.20;79.80;;;;;;5067218;28;19912;-83
2023/05/11 11:34:27;;;;;;;;;;;22.20;80.00;;;;;;5068795;28;19954;-83
2023/05/11 11:37:02;;;;;;;;;;;22.20;80.20;;;;;;5069963;28;19912;-83
2023/05/11 11:39:43;;;;;;;;;;;22.20;80.30;;;;;;5068159;28;20170;-83
2023/05/11 11:42:10;;;;;;;;;;;22.20;80.30;;;;;;5066415;28;20259;-83
2023/05/11 11:44:37;;;;;;;;;;;22.20;80.40;;;;;;5067307;28;19973;-83
2023/05/11 11:47:10;;;;;;;;;;;22.20;80.40;;;;;;5067211;28;19916;-83
2023/05/11 11:49:36;;;;;;;;;;;22.20;80.40;;;;;;5067071;28;19965;-83
2023/05/11 11:52:02;;;;;;;;;;;22.30;80.40;;;;;;5067913;28;20254;-84
2023/05/11 11:54:38;;;;;;;;;;;22.30;80.40;;;;;;5068432;28;20394;-83
2023/05/11 11:57:04;;;;;;;;;;;22.30;80.20;;;;;;5068117;28;19908;-83
2023/05/11 11:59:29;;;;;;;;;;;22.30;80.10;;;;;;5067838;28;19912;-83
2023/05/11 12:01:56;;;;;;;;;;;22.30;79.90;;;;;;5085244;28;19923;-83
2023/05/11 12:04:44;;;;;;;;;;;22.40;79.80;;;;;;5086249;28;19916;-83
2023/05/11 12:07:10;;;;;;;;;;;22.40;79.70;;;;;;5067807;28;19908;-83
2023/05/11 12:09:36;;;;;;;;;;;22.40;79.60;;;;;;5067331;28;19908;-83
2023/05/11 12:12:04;;;;;;;;;;;22.50;79.50;;;;;;5066688;28;20349;-84
2023/05/11 12:14:30;;;;;;;;;;;22.50;79.20;;;;;;5066510;28;20242;-84
2023/05/11 12:17:03;;;;;;;;;;;22.60;79.10;;;;;;5065650;28;20132;-83
2023/05/11 12:19:29;;;;;;;;;;;22.60;78.80;;;;;;5063866;28;19985;-83
2023/05/11 12:21:55;;;;;;;;;;;22.70;78.60;;;;;;5064261;28;20175;-83
2023/05/11 12:24:21;;;;;;;;;;;22.70;78.30;;;;;;5064926;28;20018;-83
2023/05/11 12:26:46;;;;;;;;;;;22.70;78.10;;;;;;5064923;28;20266;-83
2023/05/11 12:29:13;;;;;;;;;;;22.80;77.90;;;;;;5083850;28;19969;-83
2023/05/11 12:31:39;;;;;;;;;;;22.80;77.60;;;;;;5067897;28;19923;-83
2023/05/11 12:34:05;;;;;;;;;;;22.90;77.40;;;;;;5046883;28;19918;-83
2023/05/11 12:36:32;;;;;;;;;;;22.90;77.20;;;;;;5081700;28;19912;-83
2023/05/11 12:38:58;;;;;;;;;;;22.90;77.00;;;;;;5064712;28;20099;-83
2023/05/11 12:41:23;;;;;;;;;;;23.00;76.80;;;;;;5065006;28;20048;-83
2023/05/11 12:43:49;;;;;;;;;;;23.00;76.60;;;;;;5063115;28;20197;-83
2023/05/11 12:46:16;;;;;;;;;;;23.00;76.50;;;;;;5064478;28;19922;-84
2023/05/11 12:48:42;;;;;;;;;;;23.00;76.30;;;;;;5083215;28;19908;-83
2023/05/11 12:51:08;;;;;;;;;;;23.00;76.10;;;;;;5066423;28;19920;-83
2023/05/11 12:53:34;;;;;;;;;;;23.10;76.00;;;;;;5063110;28;19915;-83
2023/05/11 12:56:00;;;;;;;;;;;23.10;75.90;;;;;;5065328;28;19919;-83
2023/05/11 12:58:34;;;;;;;;;;;23.10;75.80;;;;;;5063333;28;19908;-84
2023/05/11 13:01:00;;;;;;;;;;;23.10;75.80;;;;;;5083610;28;19992;-84
2023/05/11 13:03:30;;;;;;;;;;;23.10;75.70;;;;;;5070269;28;19977;-83
2023/05/11 13:06:08;;;;;;;;;;;23.10;75.60;;;;;;5082579;28;19908;-83
2023/05/11 13:08:35;;;;;;;;;;;23.10;75.60;;;;;;5065482;28;19958;-84
2023/05/11 13:11:26;;;;;;;;;;;23.10;75.70;;;;;;5064165;28;19923;-83
2023/05/11 13:13:52;;;;;;;;;;;23.10;75.70;;;;;;5064776;28;19909;-83
2023/05/11 13:16:28;;;;;;;;;;;23.10;75.70;;;;;;5085437;28;19919;-83
2023/05/11 13:18:58;;;;;;;;;;;23.10;75.80;;;;;;5064388;28;19908;-83
2023/05/11 13:21:23;;;;;;;;;;;23.10;75.80;;;;;;5064856;28;19955;-83
2023/05/11 13:23:49;;;;;;;;;;;23.10;75.80;;;;;;5085885;28;19968;-83
2023/05/11 13:26:21;;;;;;;;;;;23.10;75.80;;;;;;5066946;28;20262;-83
2023/05/11 13:28:46;;;;;;;;;;;23.10;75.70;;;;;;5084049;28;20159;-83
2023/05/11 13:31:12;;;;;;;;;;;23.10;75.70;;;;;;5064392;28;19912;-83
2023/05/11 13:33:38;;;;;;;;;;;23.10;75.70;;;;;;5065793;28;19919;-83
2023/05/11 13:36:03;;;;;;;;;;;23.10;75.70;;;;;;5060591;28;20247;-83
2023/05/11 13:38:29;;;;;;;;;;;23.10;75.70;;;;;;5062432;28;20048;-83
2023/05/11 13:40:54;;;;;;;;;;;23.10;75.70;;;;;;5062016;28;19958;-84
2023/05/11 13:43:20;;;;;;;;;;;23.10;75.60;;;;;;5063328;28;20011;-84
2023/05/11 13:45:45;;;;;;;;;;;23.10;75.60;;;;;;5062745;28;20051;-85
2023/05/11 13:48:11;;;;;;;;;;;23.10;75.50;;;;;;5065305;28;19917;-82
2023/05/11 13:50:36;;;;;;;;;;;23.10;75.60;;;;;;5065709;28;20191;-83
2023/05/11 13:53:02;;;;;;;;;;;23.10;75.60;;;;;;5064536;28;19959;-82
2023/05/11 13:55:28;;;;;;;;;;;23.00;75.70;;;;;;5061973;28;19916;-82
2023/05/11 13:57:55;;;;;;;;;;;23.00;76.00;;;;;;5060852;28;19976;-82
2023/05/11 14:00:20;;;;;;;;;;;22.90;76.10;;;;;;5055751;28;19979;-82
2023/05/11 14:02:49;;;;;;;;;;;22.90;76.40;;;;;;5053891;28;19955;-81
2023/05/11 14:05:15;;;;;;;;;;;22.80;76.60;;;;;;5042205;28;20251;-82
2023/05/11 14:07:40;;;;;;;;;;;22.80;77.10;;;;;;5042508;28;19909;-82
2023/05/11 14:10:06;;;;;;;;;;;22.70;77.40;;;;;;5043282;28;19908;-82
2023/05/11 14:12:32;;;;;;;;;;;22.70;77.80;;;;;;5059530;28;19921;-82
2023/05/11 14:14:57;;;;;;;;;;;22.60;78.00;;;;;;5059333;28;19908;-82
2023/05/11 14:17:23;;;;;;;;;;;22.60;78.40;;;;;;5063243;28;19916;-82